Portada
METAR-TAF:

METAR-TAF

Aeroports :

Mandalay, Myanmar

latitud: 21-59N, longitud: 096-06E, altitud: 74 m

Observació

L'informe es va fer fa 4 hores i 52 minuts, a les 06:30 UTC
Vent 4 kt del Sud-Oest
Temperatura 34°C
Humitat 63%
Pressió 1011 hPa
Visibilitat: 8000 m
Núvols disperses a una alçada de 2000 ft
Núvols disperses a una alçada de 12000 ft

METAR: VYMD 220630Z 23004KT 8000 SCT020 SCT120 34/26 Q1011 NOSIG

Hora: 17:52 (11:22 UTC)

Pronòstic

L'informe es va fer fa 12 hores i 22 minuts, a les 23:00 UTC
Pronòstic vàlid del 22 a les 00 UTC al 22 a les 24 UTC
Vent 5 kt del Sud
Visibilitat: 7000 m
Cel ennuvolat a una alçada de 2000 ft
Escasses núvols a una alçada de 2500 ft, Cumulonimbus.
Temporalment
l' 22 a les 00 UTC al 22 a les 06 UTC
Vent 7 kt del Sud
Visibilitat: 6000 m
Cel ennuvolat a una alçada de 1800 ft
Escasses núvols a una alçada de 2000 ft, Cumulonimbus.

TAF: VYMD 212300Z 2200/2224 17005KT 7000 BKN020 FEW025CB TEMPO 2200/2206 18007KT 6000 BKN018 FEW020CB

Observacions i pronòstics meteorològics de més de 4000 aeroports (METAR i TAF).

Les estacions disponibles són els punts grocs i vermells al mapa.

Posi el ratolí al punt desitjat per veure el nom de l'estació.

Feu clic per veure les observacions i els pronòstics meteorològics.

Per canviar el mapa: feu clic els botons verds amb una creu de color negre per apropar; al botó verd amb un guió per allunyar la imatge; o en les fletxes verdes per a mapes adjacents.


METAR-TAF: